createdAt,value
2019-01-11T00:00:33.465Z,99135.30
2019-01-11T00:03:20.329Z,99132.08
2019-01-11T00:06:09.355Z,99127.35
2019-01-11T00:08:55.919Z,99126.03
2019-01-11T00:11:43.142Z,99148.30
2019-01-11T00:14:30.307Z,99122.97
2019-01-11T00:17:17.604Z,99128.33
2019-01-11T00:20:07.868Z,99125.50
2019-01-11T00:22:55.183Z,99119.88
2019-01-11T00:25:41.969Z,99113.20
2019-01-11T00:28:29.324Z,99109.83
2019-01-11T00:31:16.370Z,99115.65
2019-01-11T00:34:03.621Z,99109.44
2019-01-11T00:36:51.170Z,99105.39
2019-01-11T00:39:38.711Z,99101.27
2019-01-11T00:42:25.760Z,99097.59
2019-01-11T00:45:13.401Z,99097.68
2019-01-11T00:48:00.736Z,99093.59
2019-01-11T00:50:47.853Z,99092.09
2019-01-11T00:53:35.094Z,99092.17
2019-01-11T00:56:22.741Z,99092.00
2019-01-11T00:59:09.953Z,99085.20
2019-01-11T01:01:57.348Z,99085.98
2019-01-11T01:04:44.583Z,99081.86
2019-01-11T01:07:31.816Z,99089.88
2019-01-11T01:10:20.574Z,99087.80
2019-01-11T01:13:07.958Z,99087.41
2019-01-11T01:15:55.625Z,99083.02
2019-01-11T01:18:43.061Z,99082.91
2019-01-11T01:21:30.511Z,99080.69
2019-01-11T01:24:17.693Z,99089.25
2019-01-11T01:27:05.139Z,99084.62
2019-01-11T01:29:52.568Z,99087.50
2019-01-11T01:32:40.073Z,99080.76
2019-01-11T01:35:27.325Z,99081.55
2019-01-11T01:38:14.569Z,99078.16
2019-01-11T01:41:01.723Z,99077.20
2019-01-11T01:43:49.164Z,99079.40
2019-01-11T01:46:36.627Z,99080.39
2019-01-11T01:49:26.673Z,99073.67
2019-01-11T01:52:12.397Z,99071.13
2019-01-11T01:54:59.649Z,99072.73
2019-01-11T01:57:46.750Z,99069.59
2019-01-11T02:00:33.982Z,99073.14
2019-01-11T02:03:21.215Z,99074.95
2019-01-11T02:06:08.268Z,99076.36
2019-01-11T02:08:55.033Z,99075.88
2019-01-11T02:11:42.349Z,99073.11
2019-01-11T02:14:29.648Z,99075.41
2019-01-11T02:17:17.938Z,99072.05
2019-01-11T02:20:11.306Z,99073.42
2019-01-11T02:22:58.412Z,99073.20
2019-01-11T02:25:46.390Z,99076.95
2019-01-11T02:28:34.108Z,99069.38
2019-01-11T02:31:21.371Z,99071.83
2019-01-11T02:34:08.312Z,99069.94
2019-01-11T02:36:55.677Z,99065.33
2019-01-11T02:39:43.069Z,99059.00
2019-01-11T02:42:30.181Z,99059.98
2019-01-11T02:45:19.263Z,99055.26
2019-01-11T02:48:06.552Z,99059.06
2019-01-11T02:50:53.996Z,99052.34
2019-01-11T02:53:41.274Z,99053.70
2019-01-11T02:56:28.575Z,99054.73
2019-01-11T02:59:15.977Z,99047.61
2019-01-11T03:02:03.646Z,99046.20
2019-01-11T03:04:50.666Z,99042.42
2019-01-11T03:07:37.988Z,99045.59
2019-01-11T03:10:25.458Z,99046.32
2019-01-11T03:13:12.584Z,99045.02
2019-01-11T03:16:00.055Z,99038.59
2019-01-11T03:18:47.293Z,99030.64
2019-01-11T03:21:34.334Z,99030.39
2019-01-11T03:24:21.350Z,99033.21
2019-01-11T03:27:08.598Z,99029.69
2019-01-11T03:29:55.449Z,99029.66
2019-01-11T03:32:42.901Z,99023.28
2019-01-11T03:35:30.063Z,99027.13
2019-01-11T03:38:17.555Z,99023.73
2019-01-11T03:41:04.549Z,99019.95
2019-01-11T03:43:51.774Z,99016.79
2019-01-11T03:46:38.899Z,99010.55
2019-01-11T03:49:26.021Z,99009.14
2019-01-11T03:52:13.086Z,99006.55
2019-01-11T03:55:00.375Z,99004.41
2019-01-11T03:57:47.521Z,98991.14
2019-01-11T04:00:34.907Z,98995.49
2019-01-11T04:03:22.479Z,98996.09
2019-01-11T04:06:09.433Z,98990.84
2019-01-11T04:08:56.715Z,98983.48
2019-01-11T04:11:43.903Z,98985.64
2019-01-11T04:14:31.034Z,98979.80
2019-01-11T04:17:18.180Z,98981.14
2019-01-11T04:20:08.838Z,98982.89
2019-01-11T04:22:57.596Z,98980.53
2019-01-11T04:25:45.082Z,98981.50
2019-01-11T04:28:32.312Z,98982.41
2019-01-11T04:31:19.158Z,98989.58
2019-01-11T04:34:06.195Z,98985.22
2019-01-11T04:36:53.411Z,98988.70
2019-01-11T04:39:40.497Z,98987.77
2019-01-11T04:42:27.627Z,98988.86
2019-01-11T04:45:14.845Z,98984.35
2019-01-11T04:48:02.183Z,98983.20
2019-01-11T04:50:49.229Z,98979.80
2019-01-11T04:53:36.475Z,98973.09
2019-01-11T04:56:23.312Z,98972.48
2019-01-11T04:59:10.585Z,98966.78
2019-01-11T05:01:58.064Z,98964.02
2019-01-11T05:04:45.276Z,98962.17
2019-01-11T05:07:32.621Z,98951.02
2019-01-11T05:10:19.906Z,98953.41
2019-01-11T05:13:08.772Z,98948.05
2019-01-11T05:15:55.983Z,98954.00
2019-01-11T05:18:43.122Z,98949.90
2019-01-11T05:21:30.477Z,98944.06
2019-01-11T05:24:17.759Z,98942.53
2019-01-11T05:27:04.912Z,98934.08
2019-01-11T05:29:52.136Z,98936.64
2019-01-11T05:32:39.388Z,98937.79
2019-01-11T05:35:26.483Z,98938.42
2019-01-11T05:38:13.305Z,98932.78
2019-01-11T05:41:00.613Z,98935.62
2019-01-11T05:43:47.989Z,98929.55
2019-01-11T05:46:34.874Z,98927.95
2019-01-11T05:49:22.108Z,98919.88
2019-01-11T05:52:09.267Z,98914.45
2019-01-11T05:54:56.170Z,98903.73
2019-01-11T05:57:44.995Z,98905.15
2019-01-11T06:00:32.515Z,98904.97
2019-01-11T06:03:19.673Z,98900.62
2019-01-11T06:06:07.682Z,98902.89
2019-01-11T06:08:54.854Z,98900.11
2019-01-11T06:11:42.056Z,98895.20
2019-01-11T06:14:29.223Z,98892.45
2019-01-11T06:17:16.394Z,98888.48
2019-01-11T06:20:05.537Z,98892.54
2019-01-11T06:22:52.542Z,98898.48
2019-01-11T06:25:39.665Z,98897.41
2019-01-11T06:28:26.866Z,98885.53
2019-01-11T06:31:13.956Z,98884.37
2019-01-11T06:34:00.736Z,98885.92
2019-01-11T06:36:47.859Z,98881.55
2019-01-11T06:39:35.335Z,98876.79
2019-01-11T06:42:24.132Z,98878.87
2019-01-11T06:45:11.589Z,98874.46
2019-01-11T06:47:59.158Z,98877.52
2019-01-11T06:50:46.151Z,98880.52
2019-01-11T06:53:33.190Z,98875.89
2019-01-11T06:56:20.224Z,98883.19
2019-01-11T06:59:09.172Z,98879.77
2019-01-11T07:01:56.612Z,98883.99
2019-01-11T07:04:43.764Z,98882.75
2019-01-11T07:07:30.871Z,98874.14
2019-01-11T07:10:22.862Z,98879.47
2019-01-11T07:13:10.096Z,98877.34
2019-01-11T07:15:57.294Z,98878.50
2019-01-11T07:18:44.656Z,98873.45
2019-01-11T07:21:31.915Z,98869.66
2019-01-11T07:24:19.270Z,98866.08
2019-01-11T07:27:06.182Z,98859.83
2019-01-11T07:29:53.395Z,98853.80
2019-01-11T07:32:40.805Z,98854.86
2019-01-11T07:35:29.558Z,98860.83
2019-01-11T07:38:16.572Z,98861.23
2019-01-11T07:41:03.770Z,98867.90
2019-01-11T07:43:51.147Z,98864.23
2019-01-11T07:46:39.782Z,98873.73
2019-01-11T07:49:26.570Z,98871.23
2019-01-11T07:52:14.077Z,98864.27
2019-01-11T07:55:01.088Z,98857.41
2019-01-11T07:57:48.369Z,98864.19
2019-01-11T08:00:35.913Z,98860.56
2019-01-11T08:03:22.973Z,98858.57
2019-01-11T08:06:10.161Z,98859.17
2019-01-11T08:08:57.232Z,98858.14
2019-01-11T08:11:44.410Z,98862.50
2019-01-11T08:14:31.321Z,98863.16
2019-01-11T08:17:18.780Z,98858.20
2019-01-11T08:20:07.590Z,98857.41
2019-01-11T08:22:54.719Z,98856.57
2019-01-11T08:25:41.825Z,98855.73
2019-01-11T08:28:30.320Z,98850.13
2019-01-11T08:31:17.668Z,98852.55
2019-01-11T08:34:05.128Z,98847.20
2019-01-11T08:36:52.332Z,98847.85
2019-01-11T08:39:39.433Z,98841.23
2019-01-11T08:42:26.819Z,98845.02
2019-01-11T08:45:15.164Z,98845.86
2019-01-11T08:48:02.185Z,98842.11
2019-01-11T08:50:49.249Z,98842.28
2019-01-11T08:53:36.265Z,98837.22
2019-01-11T08:56:23.524Z,98836.52
2019-01-11T08:59:10.559Z,98840.15
2019-01-11T09:01:57.837Z,98830.28
2019-01-11T09:04:45.270Z,98836.13
2019-01-11T09:07:32.754Z,98836.48
2019-01-11T09:10:23.259Z,98837.72
2019-01-11T09:13:08.646Z,98847.25
2019-01-11T09:15:56.059Z,98840.44
2019-01-11T09:18:45.422Z,98838.69
2019-01-11T09:21:32.604Z,98842.46
2019-01-11T09:24:19.646Z,98847.25
2019-01-11T09:27:06.803Z,98840.28
2019-01-11T09:29:54.240Z,98834.78
2019-01-11T09:32:41.349Z,98836.95
2019-01-11T09:35:28.761Z,98836.42
2019-01-11T09:38:16.778Z,98840.67
2019-01-11T09:41:04.123Z,98852.44
2019-01-11T09:43:51.126Z,98843.41
2019-01-11T09:46:38.243Z,98844.84
2019-01-11T09:49:25.761Z,98848.41
2019-01-11T09:52:13.169Z,98848.36
2019-01-11T09:55:00.256Z,98838.58
2019-01-11T09:57:47.423Z,98842.05
2019-01-11T10:00:34.351Z,98844.31
2019-01-11T10:03:21.377Z,98842.98
2019-01-11T10:06:09.894Z,98833.16
2019-01-11T10:08:57.034Z,98829.63
2019-01-11T10:11:44.145Z,98825.53
2019-01-11T10:14:31.314Z,98830.23
2019-01-11T10:17:18.687Z,98831.79
2019-01-11T10:20:08.141Z,98830.28
2019-01-11T10:22:55.029Z,98828.39
2019-01-11T10:25:42.148Z,98826.03
2019-01-11T10:28:29.615Z,98824.48
2019-01-11T10:31:16.869Z,98820.44
2019-01-11T10:34:04.116Z,98814.08
2019-01-11T10:36:51.344Z,98816.09
2019-01-11T10:39:38.458Z,98805.70
2019-01-11T10:42:25.881Z,98803.28
2019-01-11T10:45:15.772Z,98802.09
2019-01-11T10:48:02.848Z,98805.08
2019-01-11T10:50:49.997Z,98799.31
2019-01-11T10:53:37.067Z,98805.47
2019-01-11T10:56:24.233Z,98799.45
2019-01-11T10:59:11.482Z,98810.06
2019-01-11T11:01:58.601Z,98807.82
2019-01-11T11:04:45.773Z,98809.51
2019-01-11T11:07:33.408Z,98809.51
2019-01-11T11:10:20.735Z,98797.55
2019-01-11T11:13:07.547Z,98797.30
2019-01-11T11:15:55.848Z,98788.69
2019-01-11T11:18:42.774Z,98783.13
2019-01-11T11:21:34.654Z,98781.36
2019-01-11T11:24:19.117Z,98764.13
2019-01-11T11:27:06.719Z,98766.73
2019-01-11T11:29:53.556Z,98759.59
2019-01-11T11:32:48.371Z,98751.02
2019-01-11T11:35:35.442Z,98742.27
2019-01-11T11:38:22.600Z,98754.41
2019-01-11T11:41:09.948Z,98752.31
2019-01-11T11:43:57.079Z,98764.09
2019-01-11T11:46:44.411Z,98760.06
2019-01-11T11:49:32.589Z,98762.31
2019-01-11T11:52:20.013Z,98751.64
2019-01-11T11:55:08.828Z,98740.94
2019-01-11T11:57:56.278Z,98741.74
2019-01-11T12:00:43.465Z,98735.13
2019-01-11T12:03:30.708Z,98731.27
2019-01-11T12:06:18.081Z,98731.39
2019-01-11T12:09:08.069Z,98715.91
2019-01-11T12:11:55.134Z,98716.12
2019-01-11T12:14:42.595Z,98707.73
2019-01-11T12:17:29.991Z,98701.83
2019-01-11T12:20:26.806Z,98710.84
2019-01-11T12:23:14.084Z,98707.41
2019-01-11T12:26:02.856Z,98703.88
2019-01-11T12:28:50.051Z,98703.45
2019-01-11T12:31:37.178Z,98695.13
2019-01-11T12:34:24.173Z,98688.73
2019-01-11T12:37:11.614Z,98685.77
2019-01-11T12:39:58.881Z,98684.72
2019-01-11T12:42:46.082Z,98672.64
2019-01-11T12:45:33.470Z,98675.97
2019-01-11T12:48:20.828Z,98669.80
2019-01-11T12:51:08.040Z,98666.91
2019-01-11T12:53:55.200Z,98661.59
2019-01-11T12:56:42.459Z,98658.64
2019-01-11T12:59:29.642Z,98655.62
2019-01-11T13:02:16.760Z,98651.70
2019-01-11T13:05:05.551Z,98652.42
2019-01-11T13:07:52.786Z,98656.91
2019-01-11T13:10:39.688Z,98647.80
2019-01-11T13:13:26.626Z,98640.67
2019-01-11T13:16:14.186Z,98642.23
2019-01-11T13:19:01.239Z,98641.66
2019-01-11T13:21:48.511Z,98648.88
2019-01-11T13:24:35.643Z,98651.02
2019-01-11T13:27:23.015Z,98648.66
2019-01-11T13:30:12.761Z,98654.17
2019-01-11T13:32:59.981Z,98642.52
2019-01-11T13:35:47.386Z,98646.48
2019-01-11T13:38:34.779Z,98644.89
2019-01-11T13:41:22.033Z,98648.39
2019-01-11T13:44:09.438Z,98648.73
2019-01-11T13:46:56.399Z,98646.71
2019-01-11T13:49:43.760Z,98645.41
2019-01-11T13:52:32.106Z,98656.69
2019-01-11T13:55:18.970Z,98628.49
2019-01-11T13:58:06.642Z,98631.83
2019-01-11T14:00:54.873Z,98634.75
2019-01-11T14:03:41.724Z,98636.60
2019-01-11T14:06:28.966Z,98621.64
2019-01-11T14:09:16.174Z,98625.39
2019-01-11T14:12:03.050Z,98627.56
2019-01-11T14:14:50.478Z,98619.84
2019-01-11T14:17:37.796Z,98618.39
2019-01-11T14:20:25.949Z,98609.21
2019-01-11T14:23:12.900Z,98613.96
2019-01-11T14:26:00.104Z,98595.53
2019-01-11T14:28:47.444Z,98597.73
2019-01-11T14:31:34.562Z,98600.59
2019-01-11T14:34:22.081Z,98596.57
2019-01-11T14:37:09.042Z,98602.13
2019-01-11T14:39:55.943Z,98593.98
2019-01-11T14:42:43.633Z,98593.36
2019-01-11T14:45:30.950Z,98580.94
2019-01-11T14:48:18.331Z,98592.34
2019-01-11T14:51:05.647Z,98583.16
2019-01-11T14:53:53.118Z,98594.56
2019-01-11T14:56:40.348Z,98594.11
2019-01-11T14:59:27.763Z,98584.03
2019-01-11T15:02:15.208Z,98585.34
2019-01-11T15:05:02.629Z,98588.96
2019-01-11T15:07:49.767Z,98581.53
2019-01-11T15:10:36.984Z,98580.11
2019-01-11T15:13:24.252Z,98581.88
2019-01-11T15:16:11.170Z,98576.53
2019-01-11T15:18:58.218Z,98575.49
2019-01-11T15:21:45.616Z,98573.21
2019-01-11T15:24:32.920Z,98565.27
2019-01-11T15:27:20.332Z,98563.64
2019-01-11T15:30:18.357Z,98560.98
2019-01-11T15:33:05.508Z,98558.77
2019-01-11T15:35:52.278Z,98560.95
2019-01-11T15:38:39.790Z,98556.03
2019-01-11T15:41:26.922Z,98556.20
2019-01-11T15:44:14.130Z,98559.09
2019-01-11T15:47:01.280Z,98567.04
2019-01-11T15:49:48.851Z,98552.05
2019-01-11T15:52:36.202Z,98546.78
2019-01-11T15:55:24.704Z,98546.89
2019-01-11T15:58:12.000Z,98547.97
2019-01-11T16:00:59.384Z,98547.68
2019-01-11T16:03:46.560Z,98536.29
2019-01-11T16:06:33.989Z,98538.16
2019-01-11T16:09:56.840Z,98528.38
2019-01-11T16:12:44.504Z,98528.90
2019-01-11T16:15:43.483Z,98535.41
2019-01-11T16:18:30.976Z,98542.08
2019-01-11T16:21:18.072Z,98537.91
2019-01-11T16:24:05.971Z,98545.41
2019-01-11T16:26:53.034Z,98546.95
2019-01-11T16:29:40.376Z,98538.27
2019-01-11T16:32:27.448Z,98541.08
2019-01-11T16:35:14.796Z,98545.39
2019-01-11T16:38:01.860Z,98560.36
2019-01-11T16:40:49.294Z,98556.78
2019-01-11T16:43:36.341Z,98553.25
2019-01-11T16:46:23.694Z,98549.72
2019-01-11T16:49:11.229Z,98551.75
2019-01-11T16:51:58.286Z,98551.05
2019-01-11T16:54:45.526Z,98546.41
2019-01-11T16:57:33.274Z,98551.33
2019-01-11T17:00:20.818Z,98548.56
2019-01-11T17:03:08.235Z,98542.95
2019-01-11T17:05:55.785Z,98553.88
2019-01-11T17:08:43.139Z,98551.83
2019-01-11T17:11:31.360Z,98550.63
2019-01-11T17:14:18.449Z,98549.84
2019-01-11T17:17:06.048Z,98551.54
2019-01-11T17:19:53.573Z,98561.17
2019-01-11T17:22:40.784Z,98561.02
2019-01-11T17:25:28.016Z,98554.44
2019-01-11T17:28:15.514Z,98552.66
2019-01-11T17:31:03.259Z,98551.50
2019-01-11T17:33:51.070Z,98554.25
2019-01-11T17:36:38.536Z,98543.60
2019-01-11T17:39:25.698Z,98548.20
2019-01-11T17:42:13.048Z,98549.58
2019-01-11T17:45:00.447Z,98545.74
2019-01-11T17:47:47.909Z,98546.02
2019-01-11T17:50:35.415Z,98549.98
2019-01-11T17:53:22.570Z,98546.76
2019-01-11T17:56:09.785Z,98546.94
2019-01-11T17:58:56.835Z,98548.25
2019-01-11T18:01:44.052Z,98537.95
2019-01-11T18:04:32.295Z,98545.94
2019-01-11T18:07:19.709Z,98536.27
2019-01-11T18:10:09.274Z,98342.67
2019-01-11T18:12:56.456Z,98538.28
2019-01-11T18:15:43.610Z,98543.12
2019-01-11T18:18:30.989Z,98544.89
2019-01-11T18:21:18.552Z,98540.89
2019-01-11T18:24:05.646Z,98548.42
2019-01-11T18:26:53.262Z,98548.85
2019-01-11T18:29:40.629Z,98532.65
2019-01-11T18:32:28.055Z,98549.11
2019-01-11T18:35:15.725Z,98545.70
2019-01-11T18:38:03.035Z,98551.30
2019-01-11T18:40:49.888Z,98546.98
2019-01-11T18:43:36.873Z,98551.80
2019-01-11T18:46:24.422Z,98554.40
2019-01-11T18:49:11.309Z,98552.45
2019-01-11T18:51:58.436Z,98556.17
2019-01-11T18:54:45.313Z,98558.98
2019-01-11T18:57:32.515Z,98560.70
2019-01-11T19:00:24.341Z,98559.78
2019-01-11T19:03:11.677Z,98563.25
2019-01-11T19:05:59.040Z,98555.31
2019-01-11T19:08:46.425Z,98550.92
2019-01-11T19:11:33.785Z,98552.42
2019-01-11T19:14:20.891Z,98549.81
2019-01-11T19:17:08.158Z,98553.77
2019-01-11T19:19:55.627Z,98549.08
2019-01-11T19:22:43.047Z,98545.80
2019-01-11T19:25:29.985Z,98544.83
2019-01-11T19:28:17.244Z,98542.08
2019-01-11T19:31:04.462Z,98549.34
2019-01-11T19:33:51.493Z,98547.69
2019-01-11T19:36:39.078Z,98544.92
2019-01-11T19:39:26.507Z,98544.92
2019-01-11T19:42:13.455Z,98541.63
2019-01-11T19:45:00.815Z,98542.19
2019-01-11T19:47:48.089Z,98539.57
2019-01-11T19:50:36.770Z,98542.38
2019-01-11T19:53:27.659Z,98541.56
2019-01-11T19:56:13.123Z,98545.32
2019-01-11T19:59:00.533Z,98540.05
2019-01-11T20:01:47.985Z,98546.59
2019-01-11T20:04:35.413Z,98546.22
2019-01-11T20:07:22.583Z,98546.09
2019-01-11T20:10:12.939Z,98547.48
2019-01-11T20:13:00.580Z,98546.30
2019-01-11T20:15:47.624Z,98548.78
2019-01-11T20:18:35.137Z,98554.34
2019-01-11T20:21:22.521Z,98553.58
2019-01-11T20:24:09.501Z,98568.61
2019-01-11T20:26:56.594Z,98557.13
2019-01-11T20:29:43.414Z,98562.95
2019-01-11T20:32:30.570Z,98561.27
2019-01-11T20:35:18.442Z,98567.23
2019-01-11T20:38:05.714Z,98564.64
2019-01-11T20:40:53.195Z,98568.86
2019-01-11T20:43:41.947Z,98557.17
2019-01-11T20:46:29.053Z,98560.33
2019-01-11T20:49:16.323Z,98565.66
2019-01-11T20:52:03.570Z,98557.83
2019-01-11T20:54:50.675Z,98563.22
2019-01-11T20:57:38.024Z,98565.78
2019-01-11T21:00:27.937Z,98569.64
2019-01-11T21:03:15.634Z,98574.23
2019-01-11T21:06:03.124Z,98569.09
2019-01-11T21:08:50.607Z,98572.66
2019-01-11T21:11:37.874Z,98570.39
2019-01-11T21:14:24.943Z,98572.92
2019-01-11T21:17:12.420Z,98577.47
2019-01-11T21:19:59.545Z,98573.83
2019-01-11T21:22:48.038Z,98578.05
2019-01-11T21:25:35.150Z,98579.31
2019-01-11T21:28:22.317Z,98581.01
2019-01-11T21:31:09.258Z,98574.45
2019-01-11T21:33:56.445Z,98582.90
2019-01-11T21:36:43.703Z,98577.27
2019-01-11T21:39:30.963Z,98576.09
2019-01-11T21:42:19.127Z,98576.02
2019-01-11T21:45:08.653Z,98585.41
2019-01-11T21:47:56.202Z,98574.27
2019-01-11T21:50:43.437Z,98578.53
2019-01-11T21:53:30.592Z,98585.45
2019-01-11T21:56:17.801Z,98581.53
2019-01-11T21:59:05.373Z,98581.41
2019-01-11T22:01:52.276Z,98582.30
2019-01-11T22:04:39.367Z,98586.31
2019-01-11T22:07:26.674Z,98585.30
2019-01-11T22:10:16.419Z,98580.04
2019-01-11T22:13:03.664Z,98576.44
2019-01-11T22:15:50.617Z,98589.78
2019-01-11T22:18:39.070Z,98591.66
2019-01-11T22:21:26.293Z,98594.91
2019-01-11T22:24:13.455Z,98592.23
2019-01-11T22:27:00.605Z,98598.80
2019-01-11T22:29:47.798Z,98598.95
2019-01-11T22:32:35.265Z,98597.30
2019-01-11T22:35:22.396Z,98593.89
2019-01-11T22:38:09.715Z,98595.47
2019-01-11T22:40:57.014Z,98592.67
2019-01-11T22:43:44.369Z,98595.98
2019-01-11T22:46:31.791Z,98599.09
2019-01-11T22:49:18.829Z,98599.15
2019-01-11T22:52:06.930Z,98593.92
2019-01-11T22:54:53.789Z,98592.61
2019-01-11T22:57:41.186Z,98599.52
2019-01-11T23:00:35.453Z,98603.84
2019-01-11T23:03:26.109Z,98598.36
2019-01-11T23:06:28.195Z,98592.79
2019-01-11T23:09:15.703Z,98595.24
2019-01-11T23:12:12.163Z,98594.53
2019-01-11T23:14:59.604Z,98587.86
2019-01-11T23:17:50.211Z,98592.55
2019-01-11T23:20:37.475Z,98592.38
2019-01-11T23:23:24.394Z,98589.24
2019-01-11T23:26:11.527Z,98597.86
2019-01-11T23:28:58.618Z,98589.72
2019-01-11T23:31:46.196Z,98597.38
2019-01-11T23:34:33.611Z,98602.18
2019-01-11T23:37:21.056Z,98606.83
2019-01-11T23:40:11.117Z,98602.61
2019-01-11T23:42:58.571Z,98603.84
2019-01-11T23:45:45.786Z,98603.50
2019-01-11T23:48:32.776Z,98608.86
2019-01-11T23:51:19.951Z,98598.69
2019-01-11T23:54:06.832Z,98605.77
2019-01-11T23:56:55.023Z,98606.17
2019-01-11T23:59:41.770Z,98606.99
